Time;durP1;ratioP1;P1;durP2;ratioP2;P2;SDS_P1;SDS_P2;PMS_P1;PMS_P2;Temp;Humidity;BMP_temperature;BMP_pressure;BME280_temperature;BME280_humidity;BME280_pressure;Samples;Min_cycle;Max_cycle;Signal;HPM_P1;HPM_P2
2024/01/19 00:00:02;;;;;;;2.47;0.60;;;0.00;99.90;;;;;;4965157;28;20038;-73
2024/01/19 00:02:27;;;;;;;4.30;0.32;;;-0.10;99.90;;;;;;4974739;28;20144;-73
2024/01/19 00:04:53;;;;;;;1.38;0.43;;;-0.20;99.90;;;;;;4964170;28;20073;-73
2024/01/19 00:07:20;;;;;;;0.52;0.30;;;-0.30;99.90;;;;;;4966421;28;20053;-73
2024/01/19 00:09:45;;;;;;;2.47;0.20;;;-0.40;99.90;;;;;;4978581;28;20041;-73
2024/01/19 00:12:11;;;;;;;0.20;0.20;;;-0.50;99.90;;;;;;4975448;28;20034;-73
2024/01/19 00:14:37;;;;;;;0.10;0.10;;;-0.60;99.90;;;;;;4975028;28;20069;-73
2024/01/19 00:17:03;;;;;;;0.75;0.50;;;-0.60;99.90;;;;;;4978187;28;20049;-73
2024/01/19 00:19:28;;;;;;;1.17;0.50;;;-0.80;99.90;;;;;;4979997;28;21478;-73
2024/01/19 00:21:54;;;;;;;1.60;0.68;;;-0.80;99.90;;;;;;4974431;28;20042;-73
2024/01/19 00:24:20;;;;;;;0.38;0.20;;;-0.90;99.90;;;;;;4976182;28;20222;-73
2024/01/19 00:26:47;;;;;;;0.35;0.35;;;-0.90;99.90;;;;;;4959705;28;20046;-73
2024/01/19 00:29:13;;;;;;;1.35;0.38;;;-1.00;99.90;;;;;;4979904;28;20053;-73
2024/01/19 00:31:39;;;;;;;0.22;0.22;;;-1.00;99.90;;;;;;4974676;28;20121;-73
2024/01/19 00:34:05;;;;;;;1.60;0.38;;;-1.00;99.90;;;;;;4958463;28;20117;-73
2024/01/19 00:36:31;;;;;;;0.10;0.10;;;-1.00;99.90;;;;;;4974658;28;20101;-73
2024/01/19 00:38:57;;;;;;;1.75;0.63;;;-1.00;99.90;;;;;;4974490;28;20038;-73
2024/01/19 00:41:23;;;;;;;0.20;0.20;;;-1.00;99.90;;;;;;4992126;28;20038;-73
2024/01/19 00:43:49;;;;;;;4.38;0.65;;;-1.00;99.90;;;;;;4994551;28;20073;-73
2024/01/19 00:46:14;;;;;;;0.10;0.10;;;-1.00;99.90;;;;;;4978790;28;20545;-73
2024/01/19 00:48:40;;;;;;;0.22;0.20;;;-1.00;99.90;;;;;;4986702;28;20038;-73
2024/01/19 00:51:06;;;;;;;2.70;0.32;;;-0.90;99.90;;;;;;4969798;28;20034;-73
2024/01/19 00:53:32;;;;;;;0.30;0.30;;;-0.90;99.90;;;;;;4992446;28;20375;-73
2024/01/19 00:55:57;;;;;;;2.88;0.35;;;-1.00;99.90;;;;;;4986669;28;20051;-73
2024/01/19 00:58:23;;;;;;;2.45;0.40;;;-0.90;99.90;;;;;;4978460;28;20126;-73
2024/01/19 01:00:49;;;;;;;0.63;0.40;;;-0.90;99.90;;;;;;4982526;28;20533;-73
2024/01/19 01:03:26;;;;;;;0.60;0.50;;;-0.80;99.90;;;;;;4978010;28;20568;-73
2024/01/19 01:05:57;;;;;;;0.20;0.20;;;-0.70;99.90;;;;;;4978329;28;20038;-73
2024/01/19 01:08:25;;;;;;;0.10;0.10;;;-0.70;99.90;;;;;;4973277;28;20721;-73
2024/01/19 01:10:51;;;;;;;8.75;0.28;;;-0.70;99.90;;;;;;5009953;28;20390;-73
2024/01/19 01:13:17;;;;;;;1.33;0.30;;;-0.60;99.90;;;;;;4978410;28;20550;-73
2024/01/19 01:15:44;;;;;;;1.05;0.50;;;-0.60;99.90;;;;;;4985822;28;20105;-73
2024/01/19 01:18:10;;;;;;;1.45;0.60;;;-0.50;99.90;;;;;;5009280;28;20064;-73
2024/01/19 01:20:37;;;;;;;5.15;0.70;;;-0.50;99.90;;;;;;4981916;28;20049;-73
2024/01/19 01:23:03;;;;;;;2.65;0.30;;;-0.50;99.90;;;;;;4983743;28;20043;-73
2024/01/19 01:25:30;;;;;;;0.73;0.70;;;-0.40;99.90;;;;;;4978388;28;20451;-73
2024/01/19 01:27:56;;;;;;;0.65;0.35;;;-0.40;99.90;;;;;;4985598;28;20050;-73
2024/01/19 01:30:23;;;;;;;0.20;0.20;;;-0.50;99.90;;;;;;4989321;28;20045;-73
2024/01/19 01:32:49;;;;;;;2.78;0.47;;;-0.40;99.90;;;;;;4982358;28;20038;-73
2024/01/19 01:35:15;;;;;;;3.47;0.28;;;-0.40;99.90;;;;;;4975933;28;20440;-74
2024/01/19 01:37:41;;;;;;;1.02;0.93;;;-0.30;99.90;;;;;;4975412;28;20073;-74
2024/01/19 01:40:07;;;;;;;2.05;0.35;;;-0.20;99.90;;;;;;4979143;28;20053;-73
2024/01/19 01:42:33;;;;;;;0.38;0.38;;;-0.10;99.90;;;;;;4994730;28;20030;-73
2024/01/19 01:45:00;;;;;;;0.20;0.20;;;0.20;99.90;;;;;;4998197;28;20559;-73
2024/01/19 01:47:27;;;;;;;6.90;0.68;;;0.40;99.90;;;;;;5002575;28;20495;-73
2024/01/19 01:49:56;;;;;;;0.35;0.30;;;0.60;99.90;;;;;;4983302;28;20109;-74
2024/01/19 01:52:22;;;;;;;3.72;0.30;;;0.70;99.90;;;;;;4988127;28;20038;-73
2024/01/19 01:54:49;;;;;;;0.47;0.35;;;0.80;99.90;;;;;;4977393;28;20375;-74
2024/01/19 01:57:17;;;;;;;1.23;0.20;;;0.80;99.90;;;;;;4968510;28;20073;-73
2024/01/19 01:59:43;;;;;;;1.70;0.93;;;0.90;99.90;;;;;;4986409;28;20042;-73
2024/01/19 02:02:09;;;;;;;0.52;0.40;;;0.90;99.90;;;;;;5013198;28;20034;-74
2024/01/19 02:04:35;;;;;;;0.15;0.15;;;1.00;99.90;;;;;;5010176;28;20438;-74
2024/01/19 02:07:01;;;;;;;0.50;0.47;;;1.10;99.90;;;;;;4985756;28;20052;-73
2024/01/19 02:09:27;;;;;;;0.32;0.20;;;1.20;99.90;;;;;;4983205;28;20089;-73
2024/01/19 02:11:53;;;;;;;0.55;0.30;;;1.30;99.90;;;;;;4974804;28;20038;-73
2024/01/19 02:14:19;;;;;;;0.40;0.20;;;1.30;99.90;;;;;;4991738;28;20490;-73
2024/01/19 02:16:45;;;;;;;1.10;0.38;;;1.30;99.90;;;;;;5004449;28;20051;-73
2024/01/19 02:19:14;;;;;;;0.73;0.38;;;1.30;99.90;;;;;;4998521;28;20077;-73
2024/01/19 02:21:40;;;;;;;0.80;0.30;;;1.30;99.90;;;;;;4962451;28;20113;-74
2024/01/19 02:24:12;;;;;;;0.85;0.20;;;1.20;99.90;;;;;;4981698;28;20419;-74
2024/01/19 02:26:38;;;;;;;1.42;0.40;;;1.20;99.90;;;;;;4988025;28;20112;-74
2024/01/19 02:29:04;;;;;;;1.15;0.20;;;1.10;99.90;;;;;;4981842;28;20046;-72
2024/01/19 02:31:30;;;;;;;0.98;0.98;;;1.10;99.90;;;;;;4976669;28;20069;-74
2024/01/19 02:33:57;;;;;;;0.20;0.20;;;1.10;99.90;;;;;;4980559;28;20049;-74
2024/01/19 02:36:23;;;;;;;4.35;0.30;;;1.10;99.90;;;;;;4988525;28;20050;-74
2024/01/19 02:38:48;;;;;;;0.10;0.10;;;1.00;99.90;;;;;;4981676;28;20048;-73
2024/01/19 02:41:14;;;;;;;0.13;0.13;;;1.00;99.90;;;;;;4963399;28;20042;-74
2024/01/19 02:43:40;;;;;;;0.10;0.10;;;0.90;99.90;;;;;;4983396;28;20042;-74
2024/01/19 02:46:07;;;;;;;0.55;0.47;;;0.80;99.90;;;;;;4979603;28;20034;-74
2024/01/19 02:48:33;;;;;;;0.10;0.10;;;0.80;99.90;;;;;;5007832;28;20081;-74
2024/01/19 02:50:59;;;;;;;0.10;0.10;;;0.70;99.90;;;;;;4960040;28;20080;-74
2024/01/19 02:53:24;;;;;;;0.10;0.10;;;0.70;99.90;;;;;;4976791;28;20506;-74
2024/01/19 02:55:50;;;;;;;1.38;0.65;;;0.60;99.90;;;;;;4968244;28;20120;-74
2024/01/19 02:58:16;;;;;;;1.38;0.30;;;0.60;99.90;;;;;;4980577;28;20494;-74
2024/01/19 03:00:42;;;;;;;0.40;0.20;;;0.50;99.90;;;;;;4980083;28;20504;-74
2024/01/19 03:03:07;;;;;;;0.17;0.17;;;0.50;99.90;;;;;;4988344;28;20200;-74
2024/01/19 03:05:33;;;;;;;0.10;0.10;;;0.40;99.90;;;;;;4975982;28;20050;-74
2024/01/19 03:07:59;;;;;;;0.10;0.10;;;0.40;99.90;;;;;;4996061;28;20045;-74
2024/01/19 03:10:25;;;;;;;0.90;0.47;;;0.30;99.90;;;;;;4983078;28;20054;-74
2024/01/19 03:12:50;;;;;;;0.50;0.38;;;0.30;99.90;;;;;;4986791;28;20042;-74
2024/01/19 03:15:16;;;;;;;0.52;0.40;;;0.20;99.90;;;;;;4981531;28;20092;-74
2024/01/19 03:17:42;;;;;;;0.20;0.20;;;0.20;99.90;;;;;;4963987;28;20050;-74
2024/01/19 03:20:08;;;;;;;0.50;0.38;;;0.10;99.90;;;;;;4991596;28;20041;-74
2024/01/19 03:22:34;;;;;;;0.20;0.20;;;0.10;99.90;;;;;;4995182;28;20041;-74
2024/01/19 03:25:00;;;;;;;0.10;0.10;;;0.10;99.90;;;;;;4979692;28;20045;-74
2024/01/19 03:27:25;;;;;;;0.95;0.75;;;0.00;99.90;;;;;;4975750;28;20037;-74
2024/01/19 03:29:51;;;;;;;0.20;0.20;;;0.00;99.90;;;;;;4991078;28;20034;-74
2024/01/19 03:32:17;;;;;;;0.45;0.20;;;0.00;99.90;;;;;;4978241;28;20046;-74
2024/01/19 03:34:43;;;;;;;0.10;0.10;;;0.00;99.90;;;;;;4983878;28;20038;-75
2024/01/19 03:37:09;;;;;;;0.22;0.20;;;-0.10;99.90;;;;;;4976776;28;20037;-75
2024/01/19 03:39:35;;;;;;;0.40;0.20;;;-0.10;99.90;;;;;;4995072;28;20434;-75
2024/01/19 03:42:01;;;;;;;0.10;0.10;;;-0.10;99.90;;;;;;4994229;28;20117;-75
2024/01/19 03:44:27;;;;;;;0.10;0.10;;;-0.20;99.90;;;;;;4996407;28;20050;-75
2024/01/19 03:46:53;;;;;;;0.10;0.10;;;-0.20;99.90;;;;;;4979345;28;20096;-75
2024/01/19 03:49:22;;;;;;;0.20;0.20;;;-0.20;99.90;;;;;;4967519;28;20073;-75
2024/01/19 03:51:59;;;;;;;1.38;0.45;;;-0.20;99.90;;;;;;4975650;28;20124;-75
2024/01/19 03:54:26;;;;;;;2.40;0.60;;;-0.30;99.90;;;;;;4978022;28;20133;-75
2024/01/19 03:56:53;;;;;;;0.22;0.22;;;-0.40;99.90;;;;;;4981032;28;20099;-75
2024/01/19 03:59:19;;;;;;;0.38;0.30;;;-0.50;99.90;;;;;;4991307;28;20045;-75
2024/01/19 04:01:45;;;;;;;0.32;0.20;;;-0.50;99.90;;;;;;4986019;28;20048;-75
2024/01/19 04:04:10;;;;;;;0.30;0.30;;;-0.60;99.90;;;;;;4999794;28;20120;-75
2024/01/19 04:06:36;;;;;;;0.10;0.10;;;-0.60;99.90;;;;;;4982873;28;20041;-75
2024/01/19 04:09:02;;;;;;;1.27;0.85;;;-0.60;99.90;;;;;;5010383;28;20041;-75
2024/01/19 04:11:28;;;;;;;0.20;0.20;;;-0.70;99.90;;;;;;5003927;28;20069;-75
2024/01/19 04:13:54;;;;;;;2.00;0.90;;;-0.70;99.90;;;;;;4980938;28;20054;-76
2024/01/19 04:16:20;;;;;;;0.35;0.35;;;-0.80;99.90;;;;;;5003140;28;20125;-75
2024/01/19 04:18:46;;;;;;;0.10;0.10;;;-0.80;99.90;;;;;;4979277;28;20065;-75
2024/01/19 04:21:12;;;;;;;1.02;0.32;;;-0.70;99.90;;;;;;4976527;28;20115;-75
2024/01/19 04:23:38;;;;;;;1.13;0.65;;;-0.60;99.90;;;;;;4998766;28;20045;-76
2024/01/19 04:26:03;;;;;;;0.20;0.20;;;-0.40;99.90;;;;;;5000203;28;20038;-75
2024/01/19 04:28:29;;;;;;;0.50;0.32;;;-0.30;99.90;;;;;;4998906;28;20132;-75
2024/01/19 04:30:55;;;;;;;1.30;1.20;;;-0.30;99.90;;;;;;5004088;28;20176;-75
2024/01/19 04:33:21;;;;;;;1.27;0.45;;;-0.30;99.90;;;;;;5005790;28;20048;-75
2024/01/19 04:35:47;;;;;;;0.20;0.20;;;-0.20;99.90;;;;;;4992524;28;20030;-75
2024/01/19 04:38:12;;;;;;;0.65;0.30;;;-0.20;99.90;;;;;;4982445;28;20041;-75
2024/01/19 04:40:38;;;;;;;2.83;0.55;;;-0.20;99.90;;;;;;4983072;28;20041;-75
2024/01/19 04:43:04;;;;;;;0.65;0.65;;;-0.30;99.90;;;;;;5002540;28;20073;-75
2024/01/19 04:45:30;;;;;;;1.05;0.52;;;-0.30;99.90;;;;;;4998283;28;20088;-75
2024/01/19 04:47:56;;;;;;;0.30;0.30;;;-0.20;99.90;;;;;;5002226;28;20050;-75
2024/01/19 04:50:22;;;;;;;0.10;0.10;;;-0.20;99.90;;;;;;4998010;28;20038;-75
2024/01/19 04:52:47;;;;;;;0.20;0.20;;;-0.20;99.90;;;;;;4978991;28;20045;-75
2024/01/19 04:55:13;;;;;;;2.20;1.00;;;-0.20;99.90;;;;;;4993307;28;20400;-76
2024/01/19 04:57:39;;;;;;;0.82;0.52;;;-0.20;99.90;;;;;;4970813;28;20065;-75
2024/01/19 05:00:05;;;;;;;0.30;0.30;;;-0.30;99.90;;;;;;5002618;28;20113;-76
2024/01/19 05:02:32;;;;;;;0.10;0.10;;;-0.30;99.90;;;;;;4993195;28;20052;-76
2024/01/19 05:04:59;;;;;;;0.50;0.30;;;-0.20;99.90;;;;;;5003555;28;20055;-76
2024/01/19 05:07:28;;;;;;;5.28;0.25;;;-0.30;99.90;;;;;;4990322;28;20121;-75
2024/01/19 05:09:54;;;;;;;0.45;0.38;;;-0.30;99.90;;;;;;4990298;28;20390;-76
2024/01/19 05:12:19;;;;;;;0.15;0.15;;;-0.30;99.90;;;;;;4998542;28;20053;-75
2024/01/19 05:14:46;;;;;;;0.32;0.32;;;-0.30;99.90;;;;;;5002450;28;20049;-76
2024/01/19 05:17:12;;;;;;;0.28;0.28;;;-0.40;99.90;;;;;;4998203;28;20046;-75
2024/01/19 05:19:38;;;;;;;1.75;1.00;;;-0.40;99.90;;;;;;4998130;28;20037;-75
2024/01/19 05:22:04;;;;;;;0.20;0.20;;;-0.40;99.90;;;;;;5005336;28;20068;-76
2024/01/19 05:24:30;;;;;;;0.10;0.10;;;-0.40;99.90;;;;;;5001708;28;20129;-76
2024/01/19 05:26:55;;;;;;;3.92;0.95;;;-0.50;99.90;;;;;;4994782;28;20077;-76
2024/01/19 05:29:22;;;;;;;1.55;0.30;;;-0.50;99.90;;;;;;4978742;28;20655;-76
2024/01/19 05:31:48;;;;;;;0.90;0.47;;;-0.50;99.90;;;;;;4996053;28;20042;-76
2024/01/19 05:34:14;;;;;;;0.30;0.30;;;-0.50;99.90;;;;;;4991648;28;20124;-76
2024/01/19 05:36:40;;;;;;;0.80;0.20;;;-0.50;99.90;;;;;;5001644;28;20034;-76
2024/01/19 05:39:07;;;;;;;0.73;0.50;;;-0.50;99.90;;;;;;5005548;28;20030;-76
2024/01/19 05:41:33;;;;;;;0.10;0.10;;;-0.60;99.90;;;;;;4985137;28;20046;-76
2024/01/19 05:44:00;;;;;;;0.20;0.20;;;-0.60;99.90;;;;;;4989878;28;20375;-76
2024/01/19 05:46:25;;;;;;;2.72;0.55;;;-0.70;99.90;;;;;;4997892;28;20399;-76
2024/01/19 05:48:51;;;;;;;0.10;0.10;;;-0.70;99.90;;;;;;4988228;28;20045;-76
2024/01/19 05:51:18;;;;;;;4.53;0.40;;;-0.70;99.90;;;;;;4990325;28;20470;-76
2024/01/19 05:53:46;;;;;;;3.50;0.55;;;-0.70;99.90;;;;;;5006126;28;20029;-76
2024/01/19 05:56:12;;;;;;;2.03;0.28;;;-0.80;99.90;;;;;;4985476;28;20510;-76
2024/01/19 05:58:38;;;;;;;0.70;0.32;;;-0.80;99.90;;;;;;5002939;28;20053;-76
2024/01/19 06:01:04;;;;;;;1.65;1.38;;;-0.80;99.90;;;;;;4980334;28;20705;-76
2024/01/19 06:03:33;;;;;;;0.50;0.50;;;-0.80;99.90;;;;;;4999462;28;20077;-76
2024/01/19 06:06:00;;;;;;;0.20;0.20;;;-0.80;99.90;;;;;;4995739;28;20118;-76
2024/01/19 06:08:26;;;;;;;0.45;0.45;;;-0.80;99.90;;;;;;4998388;28;20050;-76
2024/01/19 06:10:51;;;;;;;2.75;0.30;;;-0.80;99.90;;;;;;5006351;28;20088;-76
2024/01/19 06:13:17;;;;;;;0.82;0.30;;;-0.80;99.90;;;;;;4990425;28;20034;-76
2024/01/19 06:15:43;;;;;;;0.50;0.32;;;-0.80;99.90;;;;;;4977030;28;20374;-76
2024/01/19 06:18:09;;;;;;;2.55;0.30;;;-0.90;99.90;;;;;;5003608;28;20124;-76
2024/01/19 06:20:40;;;;;;;0.10;0.10;;;-0.90;99.90;;;;;;5005388;28;20053;-76
2024/01/19 06:23:06;;;;;;;1.52;0.50;;;-0.90;99.90;;;;;;4989212;28;20501;-76
2024/01/19 06:25:32;;;;;;;1.00;0.25;;;-0.90;99.90;;;;;;4984750;28;20092;-75
2024/01/19 06:27:59;;;;;;;0.60;0.60;;;-0.80;99.90;;;;;;4988435;28;20053;-75
2024/01/19 06:30:24;;;;;;;6.03;1.05;;;-0.70;99.90;;;;;;4981313;28;20046;-75
2024/01/19 06:32:50;;;;;;;0.30;0.30;;;-0.60;99.90;;;;;;4988746;28;20045;-76
2024/01/19 06:35:16;;;;;;;1.90;0.93;;;-0.60;99.90;;;;;;4988097;28;20505;-75
2024/01/19 06:37:42;;;;;;;2.92;1.02;;;-0.50;99.90;;;;;;4996737;28;20117;-75
2024/01/19 06:40:09;;;;;;;1.10;0.55;;;-0.40;99.90;;;;;;4982238;28;20052;-75
2024/01/19 06:42:36;;;;;;;7.50;0.50;;;-0.30;99.90;;;;;;4987347;28;20045;-75
2024/01/19 06:45:02;;;;;;;0.30;0.30;;;-0.20;99.90;;;;;;4992935;28;20117;-75
2024/01/19 06:47:27;;;;;;;1.27;0.90;;;-0.10;99.90;;;;;;4979734;28;20125;-75
2024/01/19 06:49:53;;;;;;;2.63;0.52;;;-0.10;99.90;;;;;;4981091;28;20330;-75
2024/01/19 06:52:19;;;;;;;0.88;0.50;;;0.00;99.90;;;;;;4991741;28;20064;-75
2024/01/19 06:54:45;;;;;;;0.63;0.52;;;0.10;99.90;;;;;;4976265;28;20168;-75
2024/01/19 06:57:10;;;;;;;2.05;0.93;;;0.10;99.90;;;;;;4989675;28;20029;-75
2024/01/19 06:59:36;;;;;;;5.90;0.88;;;0.20;99.90;;;;;;4990999;28;20049;-75
2024/01/19 07:02:02;;;;;;;2.40;0.57;;;0.20;99.90;;;;;;4994564;28;20079;-75
2024/01/19 07:04:28;;;;;;;1.80;0.73;;;0.30;99.90;;;;;;4984684;28;20129;-75
2024/01/19 07:06:54;;;;;;;0.25;0.25;;;0.30;99.90;;;;;;4975546;28;20034;-75
2024/01/19 07:09:20;;;;;;;0.80;0.57;;;0.30;99.90;;;;;;4973479;28;20076;-75
2024/01/19 07:11:45;;;;;;;3.38;0.82;;;0.30;99.90;;;;;;4992657;28;20089;-75
2024/01/19 07:14:11;;;;;;;0.95;0.80;;;0.30;99.90;;;;;;4999921;28;20038;-75
2024/01/19 07:16:43;;;;;;;5.90;0.68;;;0.20;99.90;;;;;;4974948;28;20133;-75
2024/01/19 07:19:09;;;;;;;0.28;0.22;;;0.20;99.90;;;;;;4971005;28;20104;-75
2024/01/19 07:21:41;;;;;;;2.05;0.30;;;0.10;99.90;;;;;;4993826;28;20057;-75
2024/01/19 07:24:08;;;;;;;1.20;0.73;;;0.10;99.90;;;;;;4975520;28;20045;-75
2024/01/19 07:26:34;;;;;;;3.03;0.63;;;0.00;99.90;;;;;;4988724;28;20034;-75
2024/01/19 07:29:04;;;;;;;5.13;2.28;;;0.00;99.90;;;;;;4995790;28;20141;-75
2024/01/19 07:31:31;;;;;;;1.80;0.70;;;0.00;99.90;;;;;;4995700;28;20055;-75
2024/01/19 07:33:57;;;;;;;2.97;1.15;;;-0.10;99.90;;;;;;4995491;28;20371;-75
2024/01/19 07:36:23;;;;;;;0.47;0.40;;;0.00;99.90;;;;;;4987790;28;20041;-75
2024/01/19 07:38:48;;;;;;;0.98;0.47;;;0.00;99.90;;;;;;4988658;28;20042;-75
2024/01/19 07:41:14;;;;;;;2.63;0.45;;;0.10;99.90;;;;;;4979649;28;20042;-75
2024/01/19 07:43:43;;;;;;;0.98;0.32;;;0.00;99.90;;;;;;4985743;28;20102;-75
2024/01/19 07:46:11;;;;;;;1.38;0.55;;;0.00;99.90;;;;;;5000288;28;20061;-75
2024/01/19 07:48:37;;;;;;;2.28;1.00;;;0.10;99.90;;;;;;4981353;28;20039;-75
2024/01/19 07:51:03;;;;;;;0.50;0.28;;;0.10;99.90;;;;;;4983817;28;20045;-75
2024/01/19 07:53:29;;;;;;;0.52;0.30;;;0.10;99.90;;;;;;4983460;28;20398;-75
2024/01/19 07:55:55;;;;;;;0.20;0.20;;;0.10;99.90;;;;;;4993110;28;20414;-75
2024/01/19 07:58:21;;;;;;;2.90;1.38;;;0.10;99.90;;;;;;4990646;28;20573;-75
2024/01/19 08:00:47;;;;;;;1.33;1.23;;;0.20;99.90;;;;;;4989051;28;20121;-75
2024/01/19 08:03:14;;;;;;;0.13;0.13;;;0.10;99.90;;;;;;4991009;28;20485;-75
2024/01/19 08:05:40;;;;;;;1.98;0.80;;;0.20;99.90;;;;;;4984892;28;20041;-75
2024/01/19 08:08:06;;;;;;;0.43;0.40;;;0.20;99.90;;;;;;4970701;28;20080;-75
2024/01/19 08:10:34;;;;;;;1.02;0.75;;;0.20;99.90;;;;;;4979897;28;20034;-75
2024/01/19 08:13:00;;;;;;;0.40;0.20;;;0.20;99.90;;;;;;4977797;28;20034;-75
2024/01/19 08:15:26;;;;;;;0.85;0.52;;;0.20;99.90;;;;;;4982477;28;20045;-75
2024/01/19 08:17:52;;;;;;;5.75;1.13;;;0.20;99.90;;;;;;4989658;28;20060;-76
2024/01/19 08:20:18;;;;;;;0.43;0.40;;;0.20;99.90;;;;;;4988925;28;20046;-75
2024/01/19 08:22:43;;;;;;;0.17;0.10;;;0.30;99.90;;;;;;4986982;28;20485;-75
2024/01/19 08:25:10;;;;;;;1.23;0.25;;;0.40;99.90;;;;;;4981564;28;20057;-75
2024/01/19 08:27:45;;;;;;;0.50;0.40;;;0.50;99.90;;;;;;4986851;28;20048;-75
2024/01/19 08:30:11;;;;;;;1.05;0.52;;;0.60;99.90;;;;;;4988688;28;20065;-75
2024/01/19 08:32:37;;;;;;;4.47;1.00;;;0.70;99.90;;;;;;4983403;28;20081;-75
2024/01/19 08:35:09;;;;;;;1.90;0.47;;;1.00;99.90;;;;;;4981784;28;20073;-75
2024/01/19 08:37:37;;;;;;;2.70;0.47;;;1.30;99.90;;;;;;4986555;28;20042;-74
2024/01/19 08:40:09;;;;;;;2.80;0.70;;;1.60;99.90;;;;;;4988027;28;20057;-74
2024/01/19 08:42:35;;;;;;;0.57;0.52;;;1.90;99.90;;;;;;4990838;28;20364;-74
2024/01/19 08:45:02;;;;;;;4.05;0.82;;;2.10;99.90;;;;;;4978939;28;20049;-74
2024/01/19 08:47:28;;;;;;;2.75;0.70;;;2.30;99.90;;;;;;4986816;28;20034;-74
2024/01/19 08:49:54;;;;;;;3.00;0.65;;;2.50;99.90;;;;;;4974988;28;20176;-74
2024/01/19 08:52:20;;;;;;;5.80;1.60;;;2.70;99.90;;;;;;4990677;28;20042;-74
2024/01/19 08:54:46;;;;;;;4.43;1.70;;;2.90;99.90;;;;;;4979752;28;20030;-73
2024/01/19 08:57:12;;;;;;;5.68;1.60;;;3.10;99.90;;;;;;4985314;28;20045;-73
2024/01/19 08:59:39;;;;;;;7.65;1.58;;;3.50;99.90;;;;;;4985304;28;20038;-75
2024/01/19 09:02:05;;;;;;;4.45;1.23;;;3.80;99.90;;;;;;4986335;28;20084;-75
2024/01/19 09:04:33;;;;;;;3.17;1.20;;;4.20;99.90;;;;;;4978167;28;20502;-75
2024/01/19 09:06:59;;;;;;;4.15;1.15;;;4.70;99.90;;;;;;4982980;28;20051;-75
2024/01/19 09:09:25;;;;;;;0.77;0.40;;;5.20;99.90;;;;;;4979201;28;20046;-73
2024/01/19 09:11:51;;;;;;;1.92;1.02;;;5.70;99.90;;;;;;4985855;28;20045;-74
2024/01/19 09:14:17;;;;;;;2.75;0.63;;;6.20;99.90;;;;;;4971456;28;20168;-73
2024/01/19 09:16:43;;;;;;;1.17;0.38;;;6.60;99.90;;;;;;4966112;28;20652;-73
2024/01/19 09:19:09;;;;;;;1.77;0.70;;;7.20;99.90;;;;;;4966950;28;20046;-73
2024/01/19 09:21:35;;;;;;;2.90;0.40;;;7.70;99.90;;;;;;4981391;28;20128;-72
2024/01/19 09:24:01;;;;;;;4.50;1.13;;;8.10;99.90;;;;;;4971468;28;20174;-72
2024/01/19 09:26:27;;;;;;;3.90;1.05;;;8.60;99.90;;;;;;4975995;28;20038;-72
2024/01/19 09:28:53;;;;;;;2.85;0.75;;;9.10;99.90;;;;;;4984853;28;20043;-72
2024/01/19 09:31:20;;;;;;;3.05;1.13;;;9.50;99.90;;;;;;4977388;28;20053;-72
2024/01/19 09:33:46;;;;;;;2.33;1.05;;;9.70;99.90;;;;;;4966721;28;20042;-72
2024/01/19 09:36:12;;;;;;;7.32;1.00;;;9.70;99.90;;;;;;4987680;28;20081;-72
2024/01/19 09:38:38;;;;;;;5.07;1.35;;;9.90;99.90;;;;;;4989096;28;20037;-72
2024/01/19 09:41:29;;;;;;;1.10;0.65;;;10.10;99.90;;;;;;4983982;28;20070;-72
2024/01/19 09:43:55;;;;;;;2.58;0.60;;;9.90;99.90;;;;;;4984134;28;20348;-72
2024/01/19 09:46:29;;;;;;;2.10;0.70;;;10.00;99.90;;;;;;4968480;28;20038;-72
2024/01/19 09:49:01;;;;;;;3.60;0.95;;;10.00;99.90;;;;;;4977842;28;20042;-72
2024/01/19 09:51:53;;;;;;;4.30;1.52;;;9.60;99.90;;;;;;4980408;28;20050;-72
2024/01/19 09:54:27;;;;;;;2.45;0.88;;;8.90;99.90;;;;;;4976654;28;20046;-71
2024/01/19 09:56:53;;;;;;;4.93;1.10;;;8.10;99.90;;;;;;4978697;28;20057;-71
2024/01/19 09:59:21;;;;;;;9.13;1.45;;;8.00;99.90;;;;;;4982431;28;20479;-71
2024/01/19 10:01:48;;;;;;;1.58;0.75;;;8.50;99.90;;;;;;4964651;28;20050;-71
2024/01/19 10:04:15;;;;;;;4.32;0.82;;;9.30;99.90;;;;;;4978340;28;20522;-71
2024/01/19 10:06:43;;;;;;;5.85;0.98;;;10.00;99.90;;;;;;4986956;28;20448;-71
2024/01/19 10:09:08;;;;;;;3.53;0.75;;;10.50;99.90;;;;;;4977157;28;20117;-71
2024/01/19 10:11:34;;;;;;;4.57;1.40;;;10.90;99.90;;;;;;4976375;28;20197;-71
2024/01/19 10:14:00;;;;;;;3.92;0.93;;;11.20;99.90;;;;;;4985351;28;20042;-71
2024/01/19 10:16:26;;;;;;;2.40;0.65;;;11.40;99.90;;;;;;4986431;28;20050;-71
2024/01/19 10:18:52;;;;;;;2.67;0.93;;;11.60;99.90;;;;;;4976384;28;20056;-71
2024/01/19 10:21:28;;;;;;;2.95;0.88;;;11.80;99.90;;;;;;4980782;28;20054;-71
2024/01/19 10:24:14;;;;;;;4.07;0.68;;;12.20;99.90;;;;;;4976859;28;20398;-71
2024/01/19 10:26:43;;;;;;;5.03;1.02;;;12.60;99.90;;;;;;4977516;28;20050;-71
2024/01/19 10:29:13;;;;;;;6.38;0.93;;;12.70;99.90;;;;;;4969732;28;20053;-71
2024/01/19 10:31:42;;;;;;;2.42;1.17;;;12.70;99.90;;;;;;4979380;28;20475;-71
2024/01/19 10:34:22;;;;;;;6.22;1.10;;;12.90;99.90;;;;;;4977402;28;20042;-71
2024/01/19 10:36:49;;;;;;;5.75;1.35;;;13.20;99.90;;;;;;4980507;28;20551;-70
2024/01/19 10:39:22;;;;;;;2.72;0.93;;;13.40;99.90;;;;;;4960882;28;20383;-70
2024/01/19 10:41:50;;;;;;;2.45;0.60;;;13.60;99.90;;;;;;4979580;28;20050;-71
2024/01/19 10:44:21;;;;;;;6.15;1.00;;;13.80;99.90;;;;;;4983462;28;20054;-71
2024/01/19 10:46:59;;;;;;;1.70;0.80;;;13.70;99.90;;;;;;4982486;28;20043;-70
2024/01/19 10:49:25;;;;;;;6.43;1.00;;;14.00;99.90;;;;;;4983013;28;20070;-70
2024/01/19 10:51:51;;;;;;;4.45;0.88;;;14.20;99.90;;;;;;4960564;28;20426;-70
2024/01/19 10:54:24;;;;;;;1.73;0.47;;;14.20;99.90;;;;;;4978746;28;20081;-70
2024/01/19 10:57:08;;;;;;;1.35;0.43;;;14.30;99.90;;;;;;4979996;28;20398;-70
2024/01/19 10:59:34;;;;;;;6.50;0.63;;;14.20;99.90;;;;;;4966547;28;20089;-70
2024/01/19 11:02:03;;;;;;;4.50;0.68;;;14.20;99.90;;;;;;4979536;28;20096;-70
2024/01/19 11:04:30;;;;;;;2.60;0.68;;;13.70;99.90;;;;;;4959541;28;20128;-70
2024/01/19 11:06:57;;;;;;;2.60;1.13;;;13.30;99.90;;;;;;4965030;28;20042;-70
2024/01/19 11:09:23;;;;;;;2.80;0.85;;;12.70;99.90;;;;;;4977680;28;20049;-70
2024/01/19 11:11:58;;;;;;;2.90;0.80;;;12.20;99.90;;;;;;4975483;28;20487;-70
2024/01/19 11:14:27;;;;;;;1.05;0.40;;;11.80;99.90;;;;;;4963358;28;20501;-70
2024/01/19 11:16:54;;;;;;;2.63;1.00;;;11.70;99.90;;;;;;4966994;28;20085;-70
2024/01/19 11:19:24;;;;;;;10.95;2.40;;;11.70;99.90;;;;;;4976321;28;20069;-70
2024/01/19 11:21:52;;;;;;;5.38;1.08;;;11.60;99.90;;;;;;4983862;28;20567;-70
2024/01/19 11:24:23;;;;;;;3.55;1.20;;;11.60;99.90;;;;;;4981065;28;20046;-71
2024/01/19 11:26:58;;;;;;;12.77;3.03;;;11.20;99.90;;;;;;4973066;28;20050;-70
2024/01/19 11:29:42;;;;;;;1.48;0.98;;;10.60;99.90;;;;;;4983350;28;20104;-70
2024/01/19 11:32:09;;;;;;;3.20;0.77;;;9.70;99.90;;;;;;4990818;28;20077;-70
2024/01/19 11:34:45;;;;;;;9.32;1.80;;;9.20;99.90;;;;;;4979078;28;20057;-70
2024/01/19 11:37:44;;;;;;;7.75;2.10;;;8.90;99.90;;;;;;4979342;28;20050;-70
2024/01/19 11:40:25;;;;;;;5.63;1.27;;;8.80;99.90;;;;;;4990979;28;20038;-70
2024/01/19 11:42:51;;;;;;;3.03;0.60;;;8.90;99.90;;;;;;4979439;28;20165;-70
2024/01/19 11:45:47;;;;;;;5.25;1.55;;;9.20;99.90;;;;;;4979347;28;20038;-70
2024/01/19 11:48:40;;;;;;;5.63;2.42;;;9.40;99.90;;;;;;4957443;28;20100;-70
2024/01/19 11:51:05;;;;;;;5.00;1.10;;;9.30;99.90;;;;;;4995996;28;20528;-70
2024/01/19 11:53:57;;;;;;;6.80;2.20;;;8.90;99.90;;;;;;4975812;28;20034;-70
2024/01/19 11:56:23;;;;;;;14.25;1.98;;;8.50;99.90;;;;;;4982124;28;20046;-70
2024/01/19 11:58:49;;;;;;;2.13;1.05;;;8.40;99.90;;;;;;4977697;28;20513;-70
2024/01/19 12:01:15;;;;;;;7.93;2.38;;;8.20;99.90;;;;;;4996027;28;20042;-70
2024/01/19 12:03:42;;;;;;;2.33;1.05;;;8.10;99.90;;;;;;4983018;28;20043;-70
2024/01/19 12:06:08;;;;;;;2.78;0.60;;;8.00;99.90;;;;;;4964981;28;20394;-69
2024/01/19 12:08:35;;;;;;;1.45;0.47;;;8.00;99.90;;;;;;4978375;28;20065;-70
2024/01/19 12:11:02;;;;;;;1.13;0.68;;;7.90;99.90;;;;;;4974593;28;20129;-69
2024/01/19 12:13:30;;;;;;;2.45;0.50;;;7.60;99.90;;;;;;4974514;28;20410;-70
2024/01/19 12:16:28;;;;;;;3.33;0.90;;;7.40;99.90;;;;;;4961796;28;20096;-70
2024/01/19 12:18:55;;;;;;;2.05;0.80;;;7.60;99.90;;;;;;4956869;28;20078;-70
2024/01/19 12:21:22;;;;;;;1.23;0.70;;;7.90;99.90;;;;;;4954780;28;20058;-70
2024/01/19 12:23:55;;;;;;;5.32;0.82;;;8.20;99.90;;;;;;4951328;28;20416;-71
2024/01/19 12:26:21;;;;;;;1.88;1.02;;;8.00;99.90;;;;;;4964797;28;20069;-70
2024/01/19 12:28:55;;;;;;;1.67;1.20;;;8.10;99.90;;;;;;4967057;28;20050;-70
2024/01/19 12:31:22;;;;;;;4.80;1.30;;;8.00;99.90;;;;;;4965171;28;20055;-71
2024/01/19 12:33:48;;;;;;;4.88;0.90;;;7.80;99.90;;;;;;4965678;28;20041;-69
2024/01/19 12:36:17;;;;;;;0.65;0.35;;;7.80;99.90;;;;;;4963569;28;20483;-71
2024/01/19 12:38:44;;;;;;;1.23;0.53;;;8.00;99.90;;;;;;4963362;28;20043;-71
2024/01/19 12:41:17;;;;;;;1.38;0.43;;;8.10;99.90;;;;;;4965053;28;20361;-70
2024/01/19 12:43:43;;;;;;;7.88;0.77;;;8.00;99.90;;;;;;4968312;28;20038;-69
2024/01/19 12:46:10;;;;;;;3.80;0.73;;;7.70;99.90;;;;;;4971191;28;20049;-70
2024/01/19 12:48:36;;;;;;;0.75;0.40;;;7.40;99.90;;;;;;4968415;28;20050;-70
2024/01/19 12:51:04;;;;;;;3.83;0.63;;;7.10;99.90;;;;;;4968843;28;20129;-69
2024/01/19 12:53:33;;;;;;;1.48;0.40;;;6.90;99.90;;;;;;4967247;28;20117;-69